Fort Smith, MT (59035)

5:26 AM MST on November 24, 2014 (GMT -0700)
RAWS HILLSBORO MT US | Change Station
CLOSE
Current Station
Personal Weather Station
Location: Cowley, WY
Elevation: 3985 ft
Nearby Weather Stations

Elev 3985 ft 45.10 °N, 108.22 °W | Updated 57 minutes ago

Snow
Snow
34 °F
Feels Like 30 °F
N
4
Wind Variable Wind from SSW
Gusts 11.0 mph

Today
High -- | Low -- °F
--% Chance of Precip.
Yesterday
High -- | Low -- °F
Precip. -- in
7:21 AM 4:33 PM
Waxing Crescent, 5% visible
Pressure 29.96 in
Visibility 10.0 miles
Clouds Few 4700 ft
Scattered Clouds 6000 ft
Scattered Clouds 8500 ft
Overcast 14000 ft
Windchill 30 °F
Dew Point 21 °F
Humidity 59%
Rainfall 0.00 in
Snow Depth Not available.
UV 0 out of 12
Pollen .10 out of 12
Air Quality Not available.
Flu Activity Not available.
METAR KBIL 241153Z 30016G24KT 10SM FEW047 SCT060 SCT085 OVC140 03/M04 A2991 RMK AO2 PK WND 32028/1134 SNB35E40 SLP145 P0000 60000 T00281044 10044 20028 52029 $

More Conditions Fewer Conditions

Pressure 29.96 in
Visibility 10.0 miles
Clouds Few 4700 ft
Scattered Clouds 6000 ft
Scattered Clouds 8500 ft
Overcast 14000 ft
Windchill 30 °F
Dew Point 21 °F
Humidity 59%
Rainfall 0.00 in
Snow Depth Not available.
UV 0 out of 12
Pollen .10 out of 12
Air Quality Not available.
Flu Activity Not available.
METAR KBIL 241153Z 30016G24KT 10SM FEW047 SCT060 SCT085 OVC140 03/M04 A2991 RMK AO2 PK WND 32028/1134 SNB35E40 SLP145 P0000 60000 T00281044 10044 20028 52029 $

More Conditions Fewer Conditions

10-Day Weather Forecast

Almanac

Astronomy

Nov. 24, 2014 Rise Set
Actual Time
Civil Twilight
Nautical Twilight
Astronomical Twilight
Moon
Length of Visible Light
Length of Day
Tomorrow will be .
, % of the Moon is Illuminated

Today's Extremes

State Highs State Lows

Community

WunderPhotos

Upload Photos

1,773,319 photos uploaded!

WunderBlogs® & News

Nearby

Air Quality

  Air Quality AQ Index Pollutant
Not available.

Snow Depth

Station Depth Elevation

Earthquake Activity

City Distance Mag. Time & Date
Minimum magnitude displayed is 2.5.

Coastal Water Temperatures

Place Temperature

Nearby Weather Stations